createdAt,value
2018-05-13T00:01:04.546Z,7.35
2018-05-13T00:03:31.957Z,8.40
2018-05-13T00:05:59.344Z,7.50
2018-05-13T00:08:26.729Z,7.77
2018-05-13T00:10:54.137Z,7.80
2018-05-13T00:13:21.508Z,7.50
2018-05-13T00:15:48.894Z,7.63
2018-05-13T00:18:16.284Z,7.50
2018-05-13T00:20:43.676Z,8.48
2018-05-13T00:23:11.064Z,6.93
2018-05-13T00:25:38.450Z,6.87
2018-05-13T00:28:05.845Z,7.63
2018-05-13T00:30:33.220Z,7.60
2018-05-13T00:33:00.605Z,8.37
2018-05-13T00:35:27.992Z,9.47
2018-05-13T00:37:55.485Z,7.00
2018-05-13T00:40:22.907Z,7.40
2018-05-13T00:42:50.303Z,8.80
2018-05-13T00:45:17.743Z,7.82
2018-05-13T00:47:45.126Z,6.95
2018-05-13T00:50:12.504Z,8.93
2018-05-13T00:52:39.888Z,7.67
2018-05-13T00:55:07.311Z,8.47
2018-05-13T00:57:34.738Z,9.57
2018-05-13T01:00:02.128Z,8.23
2018-05-13T01:02:29.521Z,9.10
2018-05-13T01:04:56.892Z,8.70
2018-05-13T01:07:24.286Z,8.40
2018-05-13T01:09:51.669Z,7.77
2018-05-13T01:12:19.048Z,9.07
2018-05-13T01:14:46.423Z,8.57
2018-05-13T01:17:13.812Z,8.35
2018-05-13T01:19:41.202Z,10.20
2018-05-13T01:22:08.772Z,8.03
2018-05-13T01:24:36.354Z,8.17
2018-05-13T01:27:03.739Z,9.07
2018-05-13T01:29:31.124Z,8.33
2018-05-13T01:31:58.577Z,8.73
2018-05-13T01:34:25.882Z,8.63
2018-05-13T01:36:53.282Z,9.27
2018-05-13T01:39:20.693Z,8.98
2018-05-13T01:41:48.098Z,10.63
2018-05-13T01:44:15.494Z,8.85
2018-05-13T01:46:42.884Z,9.15
2018-05-13T01:49:10.269Z,9.73
2018-05-13T01:51:37.661Z,9.50
2018-05-13T01:54:06.036Z,8.70
2018-05-13T01:56:33.435Z,9.57
2018-05-13T01:59:00.816Z,9.30
2018-05-13T02:01:28.207Z,10.17
2018-05-13T02:03:55.717Z,9.73
2018-05-13T02:06:23.139Z,11.07
2018-05-13T02:08:50.531Z,10.07
2018-05-13T02:11:17.982Z,9.80
2018-05-13T02:13:45.385Z,10.57
2018-05-13T02:16:12.993Z,10.00
2018-05-13T02:18:40.678Z,11.07
2018-05-13T02:21:08.094Z,11.50
2018-05-13T02:23:35.508Z,10.33
2018-05-13T02:26:02.968Z,10.93
2018-05-13T02:28:30.344Z,9.33
2018-05-13T02:30:58.018Z,10.33
2018-05-13T02:33:25.402Z,11.37
2018-05-13T02:35:52.782Z,10.50
2018-05-13T02:38:20.180Z,11.12
2018-05-13T02:40:47.579Z,11.05
2018-05-13T02:43:14.977Z,10.02
2018-05-13T02:45:42.351Z,10.53
2018-05-13T02:48:09.761Z,11.87
2018-05-13T02:50:37.136Z,10.57
2018-05-13T02:53:05.374Z,10.23
2018-05-13T02:55:32.760Z,10.73
2018-05-13T02:58:00.148Z,10.07
2018-05-13T03:00:27.523Z,11.53
2018-05-13T03:02:54.916Z,11.77
2018-05-13T03:05:22.316Z,10.48
2018-05-13T03:07:49.712Z,11.40
2018-05-13T03:10:17.103Z,11.60
2018-05-13T03:12:44.503Z,10.23
2018-05-13T03:15:11.876Z,10.73
2018-05-13T03:17:39.268Z,11.80
2018-05-13T03:20:06.656Z,10.40
2018-05-13T03:22:34.036Z,10.50
2018-05-13T03:25:01.427Z,10.77
2018-05-13T03:27:28.825Z,11.30
2018-05-13T03:29:56.208Z,12.73
2018-05-13T03:32:23.622Z,12.03
2018-05-13T03:34:50.995Z,11.70
2018-05-13T03:37:18.392Z,12.10
2018-05-13T03:39:45.788Z,12.70
2018-05-13T03:42:13.190Z,11.45
2018-05-13T03:44:40.572Z,14.05
2018-05-13T03:47:07.963Z,12.00
2018-05-13T03:49:35.904Z,13.05
2018-05-13T03:52:03.317Z,13.23
2018-05-13T03:54:30.699Z,13.97
2018-05-13T03:56:58.116Z,13.27
2018-05-13T03:59:25.547Z,12.80
2018-05-13T04:01:52.894Z,12.70
2018-05-13T04:04:20.300Z,14.18
2018-05-13T04:06:47.721Z,13.03
2018-05-13T04:09:27.047Z,12.73
2018-05-13T04:12:06.139Z,13.00
2018-05-13T04:14:45.338Z,13.00
2018-05-13T04:17:12.738Z,13.10
2018-05-13T04:19:40.146Z,12.70
2018-05-13T04:22:07.520Z,13.40
2018-05-13T04:24:35.840Z,13.50
2018-05-13T04:27:03.216Z,13.03
2018-05-13T04:29:30.612Z,13.93
2018-05-13T04:31:57.990Z,14.47
2018-05-13T04:34:25.402Z,13.50
2018-05-13T04:36:52.769Z,14.27
2018-05-13T04:39:20.164Z,14.13
2018-05-13T04:41:47.546Z,14.83
2018-05-13T04:44:14.942Z,13.88
2018-05-13T04:46:42.322Z,13.20
2018-05-13T04:49:09.721Z,13.50
2018-05-13T04:51:37.135Z,14.00
2018-05-13T04:54:04.520Z,14.57
2018-05-13T04:56:31.899Z,13.70
2018-05-13T04:58:59.304Z,12.17
2018-05-13T05:01:26.673Z,13.13
2018-05-13T05:03:54.058Z,12.60
2018-05-13T05:06:21.432Z,13.80
2018-05-13T05:08:48.847Z,11.95
2018-05-13T05:11:16.210Z,11.67
2018-05-13T05:13:43.600Z,12.33
2018-05-13T05:16:10.980Z,12.10
2018-05-13T05:18:38.373Z,10.80
2018-05-13T05:21:05.959Z,11.60
2018-05-13T05:23:33.358Z,11.50
2018-05-13T05:26:00.736Z,12.63
2018-05-13T05:28:28.674Z,12.60
2018-05-13T05:30:56.055Z,11.27
2018-05-13T05:33:23.450Z,12.20
2018-05-13T05:35:50.952Z,11.53
2018-05-13T05:38:18.233Z,11.07
2018-05-13T05:40:45.612Z,14.17
2018-05-13T05:43:12.999Z,14.53
2018-05-13T05:45:40.380Z,12.20
2018-05-13T05:48:07.769Z,11.93
2018-05-13T05:50:36.115Z,11.50
2018-05-13T05:53:03.515Z,13.13
2018-05-13T05:55:30.896Z,11.87
2018-05-13T05:57:58.291Z,12.27
2018-05-13T06:00:25.684Z,12.80
2018-05-13T06:02:53.243Z,12.25
2018-05-13T06:05:20.627Z,12.00
2018-05-13T06:07:48.012Z,11.93
2018-05-13T06:10:15.418Z,12.85
2018-05-13T06:12:42.825Z,11.70
2018-05-13T06:15:10.231Z,11.50
2018-05-13T06:17:37.615Z,13.03
2018-05-13T06:20:05.014Z,12.40
2018-05-13T06:22:32.395Z,12.40
2018-05-13T06:24:59.812Z,12.43
2018-05-13T06:27:27.202Z,12.50
2018-05-13T06:29:54.600Z,12.23
2018-05-13T06:32:21.988Z,11.30
2018-05-13T06:34:49.384Z,12.87
2018-05-13T06:37:16.767Z,11.73
2018-05-13T06:39:44.227Z,11.23
2018-05-13T06:42:11.547Z,11.63
2018-05-13T06:44:38.932Z,12.23
2018-05-13T06:47:06.458Z,12.33
2018-05-13T06:49:33.846Z,11.43
2018-05-13T06:52:01.236Z,12.00
2018-05-13T06:54:28.630Z,11.90
2018-05-13T06:56:56.019Z,12.50
2018-05-13T06:59:23.414Z,12.55
2018-05-13T07:01:50.792Z,11.47
2018-05-13T07:04:18.181Z,12.15
2018-05-13T07:06:45.572Z,13.63
2018-05-13T07:09:12.957Z,12.25
2018-05-13T07:11:40.343Z,11.70
2018-05-13T07:14:07.733Z,11.53
2018-05-13T07:16:35.106Z,11.87
2018-05-13T07:19:02.499Z,12.43
2018-05-13T07:21:29.878Z,12.57
2018-05-13T07:23:57.272Z,11.70
2018-05-13T07:26:24.651Z,11.83
2018-05-13T07:28:52.051Z,13.07
2018-05-13T07:31:19.429Z,11.57
2018-05-13T07:33:46.814Z,12.35
2018-05-13T07:36:14.196Z,12.00
2018-05-13T07:38:41.586Z,11.63
2018-05-13T07:41:08.963Z,11.00
2018-05-13T07:43:36.654Z,12.20
2018-05-13T07:46:04.040Z,11.77
2018-05-13T07:48:31.429Z,11.57
2018-05-13T07:50:58.826Z,13.20
2018-05-13T07:53:26.216Z,13.00
2018-05-13T07:55:53.599Z,13.50
2018-05-13T07:58:20.976Z,12.25
2018-05-13T08:00:48.413Z,12.02
2018-05-13T08:03:15.802Z,15.20
2018-05-13T08:05:43.178Z,13.00
2018-05-13T08:08:10.562Z,13.40
2018-05-13T08:10:37.965Z,14.33
2018-05-13T08:13:05.351Z,13.33
2018-05-13T08:15:32.746Z,13.80
2018-05-13T08:18:00.146Z,13.83
2018-05-13T08:20:27.638Z,11.90
2018-05-13T08:22:54.919Z,11.70
2018-05-13T08:25:22.306Z,11.85
2018-05-13T08:27:49.687Z,10.43
2018-05-13T08:30:17.080Z,10.73
2018-05-13T08:32:44.460Z,10.65
2018-05-13T08:35:11.858Z,11.17
2018-05-13T08:37:39.243Z,10.20
2018-05-13T08:40:07.522Z,10.90
2018-05-13T08:42:34.900Z,10.50
2018-05-13T08:45:02.617Z,10.50
2018-05-13T08:47:30.000Z,10.23
2018-05-13T08:49:57.399Z,10.03
2018-05-13T08:52:24.773Z,12.18
2018-05-13T08:54:52.178Z,10.37
2018-05-13T08:57:19.555Z,12.43
2018-05-13T08:59:46.955Z,11.40
2018-05-13T09:02:14.636Z,11.17
2018-05-13T09:04:42.023Z,12.35
2018-05-13T09:07:09.401Z,11.02
2018-05-13T09:09:37.070Z,11.63
2018-05-13T09:12:04.492Z,10.73
2018-05-13T09:14:31.881Z,12.83
2018-05-13T09:16:59.250Z,10.07
2018-05-13T09:19:26.650Z,12.27
2018-05-13T09:21:54.044Z,11.85
2018-05-13T09:24:21.444Z,10.73
2018-05-13T09:26:48.830Z,10.87
2018-05-13T09:29:16.263Z,10.47
2018-05-13T09:31:43.648Z,9.57
2018-05-13T09:34:11.015Z,8.57
2018-05-13T09:36:38.382Z,8.77
2018-05-13T09:39:05.774Z,8.47
2018-05-13T09:41:33.147Z,7.93
2018-05-13T09:44:00.539Z,8.07
2018-05-13T09:46:27.910Z,8.33
2018-05-13T09:48:55.351Z,6.80
2018-05-13T09:51:22.764Z,7.43
2018-05-13T09:53:50.102Z,7.47
2018-05-13T09:56:17.474Z,8.13
2018-05-13T09:58:44.843Z,6.50
2018-05-13T10:01:12.225Z,7.30
2018-05-13T10:03:39.591Z,7.60
2018-05-13T10:06:07.360Z,7.77
2018-05-13T10:08:35.123Z,7.87
2018-05-13T10:11:02.511Z,7.97
2018-05-13T10:13:29.886Z,7.93
2018-05-13T10:15:57.274Z,8.63
2018-05-13T10:18:24.663Z,8.20
2018-05-13T10:20:52.855Z,9.30
2018-05-13T10:23:20.236Z,8.57
2018-05-13T10:25:47.627Z,7.67
2018-05-13T10:28:15.108Z,9.03
2018-05-13T10:30:42.490Z,7.40
2018-05-13T10:33:09.863Z,7.97
2018-05-13T10:35:37.486Z,7.15
2018-05-13T10:38:04.876Z,8.00
2018-05-13T10:40:32.263Z,11.13
2018-05-13T10:42:59.642Z,8.13
2018-05-13T10:45:27.023Z,9.17
2018-05-13T10:47:54.429Z,9.30
2018-05-13T10:50:21.810Z,9.02
2018-05-13T10:52:49.191Z,8.00
2018-05-13T10:55:16.572Z,9.50
2018-05-13T10:57:43.997Z,7.53
2018-05-13T11:00:11.328Z,7.77
2018-05-13T11:02:38.705Z,7.30
2018-05-13T11:05:06.092Z,7.90
2018-05-13T11:07:33.465Z,8.23
2018-05-13T11:10:00.846Z,9.10
2018-05-13T11:12:28.226Z,7.50
2018-05-13T11:14:55.626Z,7.40
2018-05-13T11:17:23.009Z,6.90
2018-05-13T11:19:57.344Z,6.47
2018-05-13T11:22:24.720Z,7.53
2018-05-13T11:24:52.123Z,6.68
2018-05-13T11:27:19.505Z,6.90
2018-05-13T11:29:46.882Z,8.30
2018-05-13T11:32:14.278Z,7.85
2018-05-13T11:34:41.648Z,7.20
2018-05-13T11:37:09.030Z,7.93
2018-05-13T11:39:36.405Z,8.30
2018-05-13T11:42:03.798Z,8.07
2018-05-13T11:44:31.201Z,7.67
2018-05-13T11:46:58.588Z,7.03
2018-05-13T11:49:25.972Z,7.53
2018-05-13T11:51:53.365Z,7.37
2018-05-13T11:54:20.740Z,7.03
2018-05-13T11:56:48.136Z,8.18
2018-05-13T11:59:15.507Z,7.70
2018-05-13T12:01:42.894Z,8.30
2018-05-13T12:04:10.270Z,6.60
2018-05-13T12:06:37.824Z,6.73
2018-05-13T12:09:05.232Z,6.27
2018-05-13T12:11:32.603Z,6.30
2018-05-13T12:13:59.982Z,6.77
2018-05-13T12:16:27.469Z,8.87
2018-05-13T12:18:54.806Z,6.80
2018-05-13T12:21:22.185Z,9.53
2018-05-13T12:23:49.567Z,11.07
2018-05-13T12:26:16.956Z,9.17
2018-05-13T12:28:44.342Z,6.03
2018-05-13T12:31:11.719Z,7.60
2018-05-13T12:33:39.101Z,7.30
2018-05-13T12:36:06.466Z,7.50
2018-05-13T12:38:33.939Z,6.43
2018-05-13T12:41:01.326Z,6.50
2018-05-13T12:43:28.707Z,6.13
2018-05-13T12:45:56.148Z,6.30
2018-05-13T12:48:23.587Z,6.67
2018-05-13T12:50:50.975Z,6.47
2018-05-13T12:53:18.349Z,6.70
2018-05-13T12:55:45.742Z,7.57
2018-05-13T12:58:13.120Z,6.93
2018-05-13T13:00:40.500Z,7.90
2018-05-13T13:03:08.291Z,7.28
2018-05-13T13:05:35.678Z,6.90
2018-05-13T13:08:03.050Z,7.97
2018-05-13T13:10:30.568Z,7.40
2018-05-13T13:12:57.998Z,7.43
2018-05-13T13:15:25.303Z,8.33
2018-05-13T13:17:52.668Z,7.40
2018-05-13T13:20:20.069Z,7.03
2018-05-13T13:22:47.448Z,7.80
2018-05-13T13:25:14.874Z,7.97
2018-05-13T13:27:42.259Z,7.90
2018-05-13T13:30:09.635Z,9.20
2018-05-13T13:32:37.008Z,7.93
2018-05-13T13:35:04.428Z,7.93
2018-05-13T13:37:31.808Z,7.47
2018-05-13T13:39:59.187Z,6.07
2018-05-13T13:42:26.571Z,7.03
2018-05-13T13:44:53.962Z,6.22
2018-05-13T13:47:21.383Z,5.80
2018-05-13T13:49:48.719Z,5.50
2018-05-13T13:52:16.128Z,5.37
2018-05-13T13:54:43.488Z,5.87
2018-05-13T13:57:10.862Z,5.80
2018-05-13T13:59:38.599Z,6.03
2018-05-13T14:02:06.034Z,6.50
2018-05-13T14:04:33.398Z,5.37
2018-05-13T14:07:00.799Z,5.77
2018-05-13T14:09:28.159Z,5.23
2018-05-13T14:11:55.626Z,5.60
2018-05-13T14:14:22.934Z,6.10
2018-05-13T14:16:50.314Z,5.93
2018-05-13T14:19:17.727Z,5.93
2018-05-13T14:21:45.115Z,5.47
2018-05-13T14:24:12.493Z,5.67
2018-05-13T14:26:39.886Z,4.77
2018-05-13T14:29:07.301Z,4.60
2018-05-13T14:31:34.689Z,4.40
2018-05-13T14:34:02.098Z,4.60
2018-05-13T14:36:29.479Z,4.77
2018-05-13T14:38:56.854Z,4.27
2018-05-13T14:41:24.235Z,3.93
2018-05-13T14:43:51.623Z,4.67
2018-05-13T14:46:19.027Z,5.13
2018-05-13T14:48:46.408Z,3.72
2018-05-13T14:51:13.779Z,3.87
2018-05-13T14:53:41.169Z,3.83
2018-05-13T14:56:08.731Z,3.80
2018-05-13T14:58:36.132Z,4.00
2018-05-13T15:01:03.571Z,3.40
2018-05-13T15:03:30.950Z,3.40
2018-05-13T15:05:58.331Z,3.70
2018-05-13T15:08:25.710Z,3.40
2018-05-13T15:10:53.094Z,3.45
2018-05-13T15:13:20.486Z,3.90
2018-05-13T15:15:48.554Z,3.33
2018-05-13T15:18:15.935Z,3.00
2018-05-13T15:20:43.310Z,3.37
2018-05-13T15:23:10.697Z,3.10
2018-05-13T15:25:38.818Z,3.30
2018-05-13T15:28:06.192Z,3.03
2018-05-13T15:30:33.579Z,3.20
2018-05-13T15:33:00.975Z,2.67
2018-05-13T15:35:28.358Z,3.07
2018-05-13T15:37:55.750Z,2.83
2018-05-13T15:40:23.126Z,3.15
2018-05-13T15:42:50.619Z,3.00
2018-05-13T15:45:17.971Z,3.47
2018-05-13T15:47:45.338Z,3.37
2018-05-13T15:50:12.757Z,3.50
2018-05-13T15:52:40.260Z,3.33
2018-05-13T15:55:07.703Z,4.87
2018-05-13T15:57:35.019Z,5.83
2018-05-13T16:00:02.421Z,3.67
2018-05-13T16:02:29.803Z,3.13
2018-05-13T16:04:57.499Z,3.10
2018-05-13T16:07:24.907Z,2.42
2018-05-13T16:09:52.292Z,3.12
2018-05-13T16:12:19.770Z,2.80
2018-05-13T16:14:47.047Z,3.83
2018-05-13T16:17:14.432Z,2.90
2018-05-13T16:19:41.808Z,3.50
2018-05-13T16:22:09.191Z,3.00
2018-05-13T16:24:36.568Z,3.07
2018-05-13T16:27:03.958Z,4.33
2018-05-13T16:29:31.336Z,3.70
2018-05-13T16:31:58.715Z,3.70
2018-05-13T16:34:26.087Z,3.47
2018-05-13T16:36:53.480Z,3.37
2018-05-13T16:39:20.856Z,4.17
2018-05-13T16:41:48.259Z,2.70
2018-05-13T16:44:15.654Z,3.12
2018-05-13T16:46:43.030Z,3.47
2018-05-13T16:49:10.410Z,3.67
2018-05-13T16:51:37.820Z,4.10
2018-05-13T16:54:05.180Z,13.13
2018-05-13T16:56:32.779Z,3.33
2018-05-13T16:59:00.150Z,3.63
2018-05-13T17:01:27.525Z,3.40
2018-05-13T17:03:54.904Z,3.30
2018-05-13T17:06:22.302Z,3.33
2018-05-13T17:08:49.689Z,4.10
2018-05-13T17:11:17.054Z,3.97
2018-05-13T17:13:44.442Z,3.77
2018-05-13T17:16:11.825Z,3.77
2018-05-13T17:18:39.312Z,3.53
2018-05-13T17:21:06.683Z,3.60
2018-05-13T17:23:34.152Z,3.97
2018-05-13T17:26:01.448Z,3.80
2018-05-13T17:28:28.831Z,3.43
2018-05-13T17:30:56.214Z,3.22
2018-05-13T17:33:23.599Z,3.10
2018-05-13T17:35:51.015Z,3.17
2018-05-13T17:38:18.404Z,3.13
2018-05-13T17:40:45.779Z,4.10
2018-05-13T17:43:13.173Z,3.53
2018-05-13T17:45:40.552Z,3.80
2018-05-13T17:48:07.930Z,4.10
2018-05-13T17:50:35.302Z,3.40
2018-05-13T17:53:02.697Z,3.77
2018-05-13T17:55:30.094Z,3.67
2018-05-13T17:57:57.499Z,5.62
2018-05-13T18:00:24.866Z,4.07
2018-05-13T18:02:52.252Z,4.10
2018-05-13T18:05:19.628Z,4.55
2018-05-13T18:07:47.006Z,4.32
2018-05-13T18:10:14.482Z,4.27
2018-05-13T18:12:41.882Z,3.40
2018-05-13T18:15:09.549Z,3.85
2018-05-13T18:17:36.936Z,4.50
2018-05-13T18:20:04.339Z,4.00
2018-05-13T18:22:31.755Z,4.33
2018-05-13T18:24:59.122Z,4.37
2018-05-13T18:27:26.523Z,4.30
2018-05-13T18:29:53.919Z,4.00
2018-05-13T18:32:21.302Z,4.17
2018-05-13T18:34:48.675Z,4.13
2018-05-13T18:37:16.054Z,4.37
2018-05-13T18:39:43.678Z,4.53
2018-05-13T18:42:11.054Z,6.30
2018-05-13T18:44:38.494Z,5.20
2018-05-13T18:47:05.823Z,5.50
2018-05-13T18:49:33.208Z,5.80
2018-05-13T18:52:00.602Z,6.37
2018-05-13T18:54:28.039Z,6.77
2018-05-13T18:56:55.414Z,7.50
2018-05-13T18:59:22.814Z,6.70
2018-05-13T19:01:50.192Z,6.97
2018-05-13T19:04:17.730Z,7.20
2018-05-13T19:06:45.119Z,6.63
2018-05-13T19:09:12.499Z,7.30
2018-05-13T19:11:39.883Z,6.83
2018-05-13T19:14:07.266Z,9.60
2018-05-13T19:16:34.645Z,7.03
2018-05-13T19:19:02.047Z,8.40
2018-05-13T19:21:29.407Z,10.10
2018-05-13T19:23:56.788Z,7.80
2018-05-13T19:26:24.162Z,8.47
2018-05-13T19:28:51.547Z,7.70
2018-05-13T19:31:18.954Z,8.27
2018-05-13T19:33:46.318Z,8.67
2018-05-13T19:36:13.698Z,9.10
2018-05-13T19:38:41.090Z,9.37
2018-05-13T19:41:08.467Z,9.13
2018-05-13T19:43:35.860Z,8.20
2018-05-13T19:46:03.251Z,9.30
2018-05-13T19:48:30.614Z,9.83
2018-05-13T19:50:58.000Z,9.87
2018-05-13T19:53:25.395Z,9.23
2018-05-13T19:55:52.778Z,9.75
2018-05-13T19:58:20.175Z,9.80
2018-05-13T20:00:47.648Z,10.20
2018-05-13T20:03:15.065Z,11.07
2018-05-13T20:05:42.417Z,9.93
2018-05-13T20:08:10.005Z,10.93
2018-05-13T20:10:37.443Z,10.53
2018-05-13T20:13:04.811Z,10.40
2018-05-13T20:15:32.191Z,10.63
2018-05-13T20:17:59.586Z,10.97
2018-05-13T20:20:26.965Z,9.53
2018-05-13T20:23:06.399Z,10.13
2018-05-13T20:25:33.960Z,10.00
2018-05-13T20:28:01.554Z,11.60
2018-05-13T20:30:28.976Z,10.73
2018-05-13T20:32:56.371Z,10.57
2018-05-13T20:35:23.771Z,11.63
2018-05-13T20:37:51.162Z,11.70
2018-05-13T20:40:18.727Z,11.18
2018-05-13T20:42:46.286Z,11.77
2018-05-13T20:45:13.751Z,11.33
2018-05-13T20:47:41.152Z,11.23
2018-05-13T20:50:08.537Z,10.23
2018-05-13T20:52:35.927Z,11.13
2018-05-13T20:55:03.329Z,11.73
2018-05-13T20:57:30.699Z,10.43
2018-05-13T20:59:58.230Z,10.20
2018-05-13T21:02:25.686Z,9.95
2018-05-13T21:04:53.091Z,9.65
2018-05-13T21:07:20.483Z,9.67
2018-05-13T21:09:47.882Z,8.93
2018-05-13T21:12:15.911Z,8.60
2018-05-13T21:14:43.305Z,7.57
2018-05-13T21:17:10.677Z,7.63
2018-05-13T21:19:38.077Z,7.70
2018-05-13T21:22:05.561Z,7.53
2018-05-13T21:24:33.063Z,7.57
2018-05-13T21:27:00.939Z,7.03
2018-05-13T21:29:28.328Z,7.20
2018-05-13T21:31:55.729Z,6.93
2018-05-13T21:34:23.155Z,7.33
2018-05-13T21:36:50.527Z,6.70
2018-05-13T21:39:17.909Z,6.40
2018-05-13T21:41:45.303Z,6.70
2018-05-13T21:44:12.690Z,7.17
2018-05-13T21:46:40.471Z,6.50
2018-05-13T21:49:08.027Z,6.23
2018-05-13T21:51:35.415Z,6.33
2018-05-13T21:54:02.800Z,6.33
2018-05-13T21:56:30.175Z,6.20
2018-05-13T21:58:57.786Z,5.70
2018-05-13T22:01:25.161Z,5.20
2018-05-13T22:03:52.559Z,5.90
2018-05-13T22:06:19.961Z,6.17
2018-05-13T22:08:47.349Z,5.30
2018-05-13T22:11:14.943Z,6.05
2018-05-13T22:13:42.344Z,7.37
2018-05-13T22:16:10.584Z,6.80
2018-05-13T22:18:38.195Z,6.10
2018-05-13T22:21:05.571Z,5.50
2018-05-13T22:23:32.961Z,6.07
2018-05-13T22:26:00.370Z,6.33
2018-05-13T22:28:27.771Z,5.43
2018-05-13T22:30:55.220Z,6.35
2018-05-13T22:33:22.603Z,5.10
2018-05-13T22:35:49.990Z,4.85
2018-05-13T22:38:17.373Z,5.23
2018-05-13T22:40:44.760Z,5.60
2018-05-13T22:43:12.131Z,5.23
2018-05-13T22:45:39.524Z,5.13
2018-05-13T22:48:06.904Z,5.43
2018-05-13T22:50:34.286Z,6.60
2018-05-13T22:53:01.748Z,5.60
2018-05-13T22:55:29.130Z,7.00
2018-05-13T22:57:56.519Z,6.07
2018-05-13T23:00:24.036Z,6.45
2018-05-13T23:02:51.299Z,7.10
2018-05-13T23:05:18.753Z,6.90
2018-05-13T23:07:46.078Z,8.90
2018-05-13T23:10:13.493Z,6.40
2018-05-13T23:12:40.927Z,7.50
2018-05-13T23:15:08.323Z,6.73
2018-05-13T23:17:35.693Z,9.00
2018-05-13T23:20:03.088Z,6.20
2018-05-13T23:22:36.087Z,8.50
2018-05-13T23:25:03.528Z,6.77
2018-05-13T23:27:30.891Z,5.87
2018-05-13T23:29:58.294Z,6.87
2018-05-13T23:32:25.692Z,7.10
2018-05-13T23:34:53.070Z,7.10
2018-05-13T23:37:20.455Z,7.05
2018-05-13T23:39:47.853Z,8.00
2018-05-13T23:42:15.243Z,7.50
2018-05-13T23:44:42.693Z,11.13
2018-05-13T23:47:10.972Z,6.90
2018-05-13T23:49:38.366Z,7.30
2018-05-13T23:52:05.739Z,6.60
2018-05-13T23:54:33.127Z,7.00
2018-05-13T23:57:00.498Z,7.33
2018-05-13T23:59:27.882Z,6.62
